Meteo Giornale » Osservazioni meteo Qatar » Doha

ore: 16:00 - Osservazioni Meteo Doha
Lat. 25° 15' N Lon. 51° 34' E Alt. 11 metri s.l.m.

sereno Asia/Qatar

22 °C

Sereno

Temp. 24 Ore

17 °C

24 °C

Sud-Est

18.5 Km/h

Dew point 16 °C

Umidità 68 %

Visibilità  10 Km

Il sole sorge alle ore 06:13

Il sole tramonta alle ore 17:22

Data e Ora Cielo e Fenomeni T °C DP °C Um. % Pres. hPa Vis. km Vento km/h
Oggi h: 16:00 sereno Sereno 22 16 68 1013 10 SE 18.5
Oggi h: 15:30 sereno Sereno 22 16 68 1013 10 SE 18.5
Oggi h: 15:00 sereno Sereno 22 16 68 1013 10 SE 20.3
Oggi h: 14:30 sereno Sereno 22 15 64 1013 10 SE 18.5
Oggi h: 14:00 sereno Sereno 23 14 56 1014 10 SE 18.5
Oggi h: 13:30 sereno Sereno 23 15 60 1014 10 SE 16.7
Oggi h: 13:00 sereno Sereno 24 12 47 1015 10 S/SE 18.5
Oggi h: 12:30 sereno Sereno 23 11 46 1015 10 SE 18.5
Oggi h: 12:00 sereno Sereno 23 13 53 1016 10 SE 16.7
Oggi h: 11:30 sereno Sereno 23 11 46 1016 10 S/SE 22.2
Oggi h: 11:00 sereno Sereno 22 12 53 1017 10 S/SE 20.3
Oggi h: 10:30 sereno Sereno 22 13 56 1017 10 SE 16.7
Oggi h: 10:00 sereno Sereno 21 14 64 1017 10 SE 18.5
Oggi h: 09:30 sereno Sereno 21 15 68 1017 10 SE 14.8
Oggi h: 09:00 sereno Sereno 21 16 73 1017 10 SE 13
Oggi h: 08:30 sereno Sereno 20 16 77 1017 10 E/SE 11.1
Oggi h: 08:00 sereno Sereno 20 16 77 1017 10 N 5.5
Oggi h: 07:30 sereno Sereno 19 15 77 1017 10 N 0
Oggi h: 07:00 sereno Sereno 18 16 88 1017 10 N 3.7
Oggi h: 06:30 sereno Sereno 17 15 88 1016 10 N 3.7
Oggi h: 06:00 sereno Sereno 17 15 88 1016 10 N 3.7
Oggi h: 05:30 sereno Sereno 17 15 88 1016 10 N 0
Oggi h: 05:00 sereno Sereno 17 15 88 1016 10 N 0
Oggi h: 04:30 sereno Sereno 17 15 88 1015 10 N 1.8
Oggi h: 04:00 sereno Sereno 17 14 82 1015 10 N 5.5
Oggi h: 03:30 sereno Sereno 17 14 82 1015 10 N 5.5
Oggi h: 03:00 sereno Sereno 17 14 82 1015 10 N 5.5
Oggi h: 02:30 sereno Sereno 17 14 82 1015 10 N 3.7
Oggi h: 02:00 sereno Sereno 17 14 82 1015 10 N 3.7
Oggi h: 01:30 sereno Sereno 17 14 82 1015 10 N 1.8
Oggi h: 01:00 sereno Sereno 17 14 82 1015 10 N 3.7
Oggi h: 00:30 sereno Sereno 17 14 82 1015 10 N 1.8
Oggi h: 00:00 sereno Sereno 18 14 77 1016 10 N 5.5
Ieri h: 23:30 sereno Sereno 18 14 77 1016 10 N 5.5
Ieri h: 23:00 sereno Sereno 18 15 82 1016 10 N 5.5
Ieri h: 22:30 sereno Sereno 18 15 82 1016 10 N 5.5
Ieri h: 22:00 sereno Sereno 19 15 77 1016 10 N 7.4
Ieri h: 21:30 sereno Sereno 19 14 72 1016 10 N 7.4
Ieri h: 21:00 sereno Sereno 19 15 77 1016 10 N 7.4
Ieri h: 20:30 sereno Sereno 19 15 77 1016 10 N/NE 7.4
Ieri h: 20:00 sereno Sereno 19 14 72 1016 10 N/NE 9.3
Ieri h: 19:30 sereno Sereno 19 14 72 1016 10 N/NE 9.3
Ieri h: 19:00 sereno Sereno 19 14 72 1016 10 N/NE 9.3
Ieri h: 18:30 sereno Sereno 20 13 64 1015 10 N/NE 13
Ieri h: 18:00 sereno Sereno 20 13 64 1015 10 N/NE 13
Ieri h: 17:30 sereno Sereno 20 14 68 1015 10 N/NE 11.1
Ieri h: 17:00 sereno Sereno 20 14 68 1015 10 N/NE 11.1
Ieri h: 16:30 sereno Sereno 21 14 64 1015 10 NE 13
Ieri h: 16:00 sereno Sereno 21 13 60 1015 10 NE 14.8